Time;durP1;ratioP1;P1;durP2;ratioP2;P2;SDS_P1;SDS_P2;PMS_P1;PMS_P2;Temp;Humidity;BMP_temperature;BMP_pressure;BME280_temperature;BME280_humidity;BME280_pressure;Samples;Min_cycle;Max_cycle;Signal;HPM_P1;HPM_P2
2022/08/23 00:00:14;;;;;;;1.23;1.13;;;31.70;57.60;;;;;;5102449;28;20778;-64
2022/08/23 00:02:47;;;;;;;2.30;1.50;;;31.60;56.80;;;;;;5103650;28;21059;-63
2022/08/23 00:05:19;;;;;;;1.30;1.20;;;31.50;57.80;;;;;;5107234;28;20495;-64
2022/08/23 00:07:49;;;;;;;1.30;1.20;;;31.50;57.10;;;;;;5125727;28;20464;-64
2022/08/23 00:10:21;;;;;;;1.30;1.20;;;31.40;57.40;;;;;;5126950;28;20466;-64
2022/08/23 00:12:53;;;;;;;1.43;1.20;;;31.30;58.50;;;;;;5127148;28;20532;-64
2022/08/23 00:15:24;;;;;;;2.00;1.60;;;31.30;58.30;;;;;;5127107;28;20464;-64
2022/08/23 00:17:55;;;;;;;1.03;0.93;;;31.20;58.50;;;;;;5126925;28;20775;-64
2022/08/23 00:20:26;;;;;;;1.30;1.20;;;31.30;59.70;;;;;;5126358;28;20527;-64
2022/08/23 00:22:57;;;;;;;1.50;1.40;;;31.40;59.30;;;;;;5125372;28;20802;-64
2022/08/23 00:25:28;;;;;;;1.33;1.23;;;31.30;57.60;;;;;;5126806;28;20959;-64
2022/08/23 00:28:00;;;;;;;1.10;0.80;;;31.20;57.40;;;;;;5127153;28;20437;-64
2022/08/23 00:30:31;;;;;;;1.30;1.20;;;31.20;58.20;;;;;;5122331;28;20475;-63
2022/08/23 00:33:03;;;;;;;1.60;1.03;;;31.20;58.30;;;;;;5099173;28;20469;-64
2022/08/23 00:35:34;;;;;;;2.33;1.40;;;31.20;58.30;;;;;;5097771;28;20469;-64
2022/08/23 00:38:04;;;;;;;1.30;1.20;;;31.20;58.60;;;;;;5106666;28;20473;-64
2022/08/23 00:40:55;;;;;;;1.30;1.20;;;31.20;58.60;;;;;;5105494;28;20481;-65
2022/08/23 00:49:25;;;;;;;1.40;1.30;;;30.90;60.70;;;;;;5099217;28;20459;-64
2022/08/23 00:52:01;;;;;;;1.37;1.27;;;30.80;59.20;;;;;;5096590;28;20469;-65
2022/08/23 00:54:33;;;;;;;0.83;0.83;;;30.70;61.50;;;;;;5103414;28;20467;-64
2022/08/23 00:57:07;;;;;;;1.30;1.20;;;30.60;60.70;;;;;;5093540;28;20468;-65
2022/08/23 00:59:39;;;;;;;0.97;0.97;;;30.40;61.30;;;;;;5100986;28;20478;-65
2022/08/23 01:02:11;;;;;;;1.17;0.93;;;30.30;60.80;;;;;;5102611;28;20459;-65
2022/08/23 01:04:46;;;;;;;1.50;1.40;;;30.10;62.30;;;;;;5108356;28;20476;-64
2022/08/23 01:07:25;;;;;;;1.53;1.43;;;30.00;63.80;;;;;;5106767;28;20487;-65
2022/08/23 01:10:00;;;;;;;1.00;1.00;;;29.80;66.00;;;;;;5107063;28;20561;-66
2022/08/23 01:12:38;;;;;;;1.30;1.30;;;29.80;64.00;;;;;;5099872;28;20510;-66
2022/08/23 01:15:20;;;;;;;1.17;0.97;;;29.80;65.20;;;;;;5103547;28;20471;-67
2022/08/23 01:17:55;;;;;;;1.33;1.23;;;29.80;64.10;;;;;;5094004;28;20465;-66
2022/08/23 01:20:27;;;;;;;1.00;1.00;;;29.90;64.30;;;;;;5104880;28;20452;-67
2022/08/23 01:23:02;;;;;;;1.53;1.43;;;29.90;62.60;;;;;;5098491;28;20453;-66
2022/08/23 01:25:35;;;;;;;1.40;1.30;;;29.90;63.90;;;;;;5102863;28;20486;-66
2022/08/23 01:28:06;;;;;;;1.50;1.40;;;30.10;64.30;;;;;;5087250;28;20457;-66
2022/08/23 01:30:37;;;;;;;1.57;1.47;;;30.10;63.00;;;;;;5104173;28;20817;-66
2022/08/23 01:33:09;;;;;;;1.13;1.03;;;30.10;62.60;;;;;;5103322;28;20507;-66
2022/08/23 01:35:43;;;;;;;0.93;0.93;;;30.20;63.20;;;;;;5097021;28;20476;-65
2022/08/23 01:38:14;;;;;;;1.30;1.20;;;30.20;63.20;;;;;;5110667;28;20468;-67
2022/08/23 01:40:46;;;;;;;2.10;1.70;;;30.30;62.80;;;;;;5098058;28;20510;-65
2022/08/23 01:43:18;;;;;;;1.33;1.23;;;30.20;64.30;;;;;;5097439;28;20526;-65
2022/08/23 01:45:51;;;;;;;1.27;1.17;;;30.00;65.00;;;;;;5115066;28;20484;-65
2022/08/23 01:48:23;;;;;;;0.90;0.90;;;29.80;66.80;;;;;;5103291;28;20548;-63
2022/08/23 01:50:53;;;;;;;0.67;0.67;;;29.70;69.30;;;;;;5094239;28;20459;-66
2022/08/23 01:53:24;;;;;;;0.90;0.90;;;29.70;65.20;;;;;;5113856;28;20453;-66
2022/08/23 01:55:57;;;;;;;1.07;0.97;;;29.80;65.60;;;;;;5111862;28;20467;-66
2022/08/23 01:58:29;;;;;;;0.70;0.70;;;29.90;66.00;;;;;;5110397;28;20448;-65
2022/08/23 02:01:00;;;;;;;0.90;0.90;;;29.80;64.20;;;;;;5102669;28;20468;-64
2022/08/23 02:03:31;;;;;;;1.80;0.73;;;29.70;65.10;;;;;;5098702;28;20467;-66
2022/08/23 02:06:02;;;;;;;1.43;0.77;;;29.70;65.10;;;;;;5099789;28;20503;-66
2022/08/23 02:11:49;;;;;;;0.83;0.83;;;29.60;66.10;;;;;;5019865;28;20572;-66
2022/08/23 02:14:21;;;;;;;1.00;0.90;;;29.40;65.50;;;;;;5022028;28;20475;-66
2022/08/23 02:16:55;;;;;;;0.80;0.80;;;29.40;67.20;;;;;;5024231;28;20470;-67
2022/08/23 02:19:34;;;;;;;0.80;0.80;;;29.20;67.30;;;;;;5022510;28;20472;-67
2022/08/23 02:22:06;;;;;;;0.50;0.50;;;29.00;68.90;;;;;;5022371;28;20483;-67
2022/08/23 02:24:41;;;;;;;1.13;1.03;;;28.90;69.00;;;;;;5023653;28;20484;-66
2022/08/23 02:27:15;;;;;;;0.70;0.70;;;28.80;69.30;;;;;;5021797;28;20609;-67
2022/08/23 02:29:48;;;;;;;0.73;0.70;;;28.60;69.60;;;;;;5026644;28;20468;-66
2022/08/23 02:32:21;;;;;;;0.77;0.60;;;28.60;70.00;;;;;;5022340;28;20472;-69
2022/08/23 02:34:56;;;;;;;0.80;0.80;;;28.60;68.50;;;;;;5025912;28;20555;-68
2022/08/23 02:37:35;;;;;;;2.00;1.80;;;28.60;68.70;;;;;;5028485;28;20474;-70
2022/08/23 02:40:07;;;;;;;1.80;1.10;;;28.60;67.80;;;;;;5036458;28;20454;-67
2022/08/23 02:42:39;;;;;;;0.70;0.60;;;28.50;67.70;;;;;;5057679;28;20456;-66
2022/08/23 02:45:11;;;;;;;1.30;1.00;;;28.50;68.30;;;;;;5102798;28;20443;-65
2022/08/23 02:47:42;;;;;;;1.67;0.90;;;28.30;69.70;;;;;;5103383;28;20509;-66
2022/08/23 02:50:13;;;;;;;0.70;0.70;;;28.10;70.70;;;;;;5121351;28;20458;-67
2022/08/23 02:52:45;;;;;;;0.60;0.50;;;28.00;71.10;;;;;;5106928;28;20492;-66
2022/08/23 02:55:16;;;;;;;0.90;0.73;;;27.90;71.00;;;;;;5099563;28;20469;-67
2022/08/23 02:57:49;;;;;;;1.10;0.93;;;27.80;71.10;;;;;;5100461;28;20573;-67
2022/08/23 03:00:22;;;;;;;0.50;0.50;;;27.70;71.90;;;;;;5115998;28;20452;-67
2022/08/23 03:02:54;;;;;;;0.80;0.80;;;27.60;72.70;;;;;;5120964;28;20449;-67
2022/08/23 03:05:25;;;;;;;0.90;0.70;;;27.40;73.50;;;;;;5123016;28;20429;-67
2022/08/23 03:07:56;;;;;;;1.33;0.90;;;27.30;74.80;;;;;;5119512;28;20501;-66
2022/08/23 03:10:26;;;;;;;0.73;0.73;;;27.20;74.40;;;;;;5101333;28;20571;-67
2022/08/23 03:12:59;;;;;;;0.83;0.83;;;27.20;74.90;;;;;;5110322;28;20445;-67
2022/08/23 03:15:30;;;;;;;1.10;0.80;;;27.10;74.80;;;;;;5121935;28;20565;-67
2022/08/23 03:18:01;;;;;;;2.60;1.27;;;27.10;75.30;;;;;;5119908;28;20445;-66
2022/08/23 03:20:31;;;;;;;0.73;0.70;;;27.00;76.40;;;;;;5122711;28;20476;-66
2022/08/23 03:23:02;;;;;;;1.23;1.00;;;26.80;77.40;;;;;;5112830;28;20551;-67
2022/08/23 03:25:33;;;;;;;0.93;0.93;;;26.70;78.00;;;;;;5123070;28;20774;-67
2022/08/23 03:28:06;;;;;;;0.70;0.70;;;26.60;79.00;;;;;;5116314;28;20962;-67
2022/08/23 03:30:37;;;;;;;1.07;1.00;;;26.60;79.00;;;;;;5096038;28;20469;-67
2022/08/23 03:33:08;;;;;;;1.80;0.70;;;26.60;78.60;;;;;;5115883;28;20462;-66
2022/08/23 03:35:39;;;;;;;0.97;0.97;;;26.50;80.10;;;;;;5102671;28;20464;-66
2022/08/23 03:38:10;;;;;;;1.17;1.00;;;26.40;81.00;;;;;;5112035;28;20478;-67
2022/08/23 03:40:41;;;;;;;0.97;0.87;;;26.30;81.60;;;;;;5121324;28;20935;-67
2022/08/23 03:43:13;;;;;;;1.20;1.10;;;26.20;82.30;;;;;;5091177;28;20957;-67
2022/08/23 03:45:44;;;;;;;1.20;1.10;;;26.20;82.80;;;;;;5106522;28;20463;-67
2022/08/23 03:48:15;;;;;;;1.00;1.00;;;26.10;83.40;;;;;;5106372;28;20851;-66
2022/08/23 03:50:46;;;;;;;1.10;1.00;;;26.00;84.00;;;;;;5118438;28;20452;-66
2022/08/23 03:53:17;;;;;;;1.10;0.97;;;25.90;84.70;;;;;;5093694;28;20465;-66
2022/08/23 03:55:48;;;;;;;1.13;0.90;;;25.90;84.70;;;;;;5111709;28;20452;-66
2022/08/23 03:58:21;;;;;;;1.10;1.00;;;25.90;84.40;;;;;;5100827;28;20467;-66
2022/08/23 04:00:51;;;;;;;1.27;1.10;;;25.90;84.40;;;;;;5119677;28;20450;-66
2022/08/23 04:03:22;;;;;;;1.30;1.20;;;25.90;84.40;;;;;;5100909;28;20443;-66
2022/08/23 04:05:53;;;;;;;1.00;1.00;;;25.80;85.00;;;;;;5117313;28;20456;-66
2022/08/23 04:08:24;;;;;;;1.47;0.90;;;25.80;85.70;;;;;;5098710;28;20504;-65
2022/08/23 04:11:03;;;;;;;1.63;0.97;;;25.60;86.00;;;;;;5106092;28;20455;-65
2022/08/23 04:13:35;;;;;;;1.10;1.10;;;25.60;86.80;;;;;;5100136;28;21251;-66
2022/08/23 04:16:07;;;;;;;1.47;1.00;;;25.50;86.70;;;;;;5121876;28;20452;-66
2022/08/23 04:18:38;;;;;;;0.80;0.80;;;25.40;87.40;;;;;;5101326;28;20478;-67
2022/08/23 04:21:12;;;;;;;0.87;0.87;;;25.30;87.00;;;;;;5105319;28;20472;-66
2022/08/23 04:23:43;;;;;;;1.27;1.17;;;25.20;87.00;;;;;;5108029;28;20473;-66
2022/08/23 04:26:14;;;;;;;0.80;0.80;;;25.10;88.50;;;;;;5115172;28;20447;-66
2022/08/23 04:28:46;;;;;;;1.50;1.40;;;25.00;88.80;;;;;;5117497;28;20820;-66
2022/08/23 04:31:18;;;;;;;1.20;1.10;;;24.90;89.00;;;;;;5122051;28;20443;-66
2022/08/23 04:33:51;;;;;;;1.33;1.17;;;24.90;88.50;;;;;;5122752;28;20470;-67
2022/08/23 04:36:22;;;;;;;1.07;1.03;;;24.80;89.30;;;;;;5110448;28;20493;-66
2022/08/23 04:38:54;;;;;;;1.20;1.10;;;24.70;90.10;;;;;;5097628;28;20550;-66
2022/08/23 04:44:14;;;;;;;1.23;1.10;;;24.40;90.60;;;;;;5122256;28;20461;-67
2022/08/23 04:46:47;;;;;;;1.20;1.10;;;24.30;91.10;;;;;;5121706;28;20474;-68
2022/08/23 04:49:18;;;;;;;0.97;0.97;;;24.30;91.00;;;;;;5124241;28;20464;-69
2022/08/23 04:51:53;;;;;;;1.20;1.10;;;24.20;91.60;;;;;;5113432;28;20477;-68
2022/08/23 04:54:24;;;;;;;1.10;1.00;;;24.00;92.50;;;;;;5105947;28;20465;-68
2022/08/23 04:56:55;;;;;;;1.03;1.03;;;24.10;92.20;;;;;;5114000;28;20469;-70
2022/08/23 04:59:27;;;;;;;1.33;1.20;;;24.00;92.50;;;;;;5088552;28;20447;-68
2022/08/23 05:01:58;;;;;;;1.10;1.03;;;23.90;92.50;;;;;;5099545;28;20471;-68
2022/08/23 05:04:29;;;;;;;1.40;1.30;;;23.90;92.60;;;;;;5104194;28;20458;-69
2022/08/23 05:07:00;;;;;;;1.30;1.20;;;23.80;92.80;;;;;;5111898;28;20563;-70
2022/08/23 05:09:30;;;;;;;0.90;0.90;;;23.80;92.90;;;;;;5118530;28;20445;-68
2022/08/23 05:12:01;;;;;;;0.93;0.93;;;23.70;93.10;;;;;;5109717;28;20450;-69
2022/08/23 05:14:33;;;;;;;1.17;1.07;;;23.70;93.40;;;;;;5103336;28;20562;-68
2022/08/23 05:17:04;;;;;;;1.23;1.07;;;23.70;93.40;;;;;;5122920;28;20770;-70
2022/08/23 05:19:36;;;;;;;1.27;1.17;;;23.60;93.60;;;;;;5098366;28;20867;-70
2022/08/23 05:22:13;;;;;;;1.30;1.20;;;23.50;93.90;;;;;;5111806;28;20470;-70
2022/08/23 05:24:44;;;;;;;0.93;0.93;;;23.40;94.00;;;;;;5107038;28;20958;-70
2022/08/23 05:27:15;;;;;;;1.43;1.33;;;23.40;94.30;;;;;;5099838;28;20786;-69
2022/08/23 05:29:48;;;;;;;1.17;1.07;;;23.30;94.60;;;;;;5110067;28;20467;-69
2022/08/23 05:32:19;;;;;;;1.03;0.93;;;23.30;94.80;;;;;;5109008;28;20458;-70
2022/08/23 05:34:50;;;;;;;1.50;1.30;;;23.20;95.00;;;;;;5125098;28;20442;-69
2022/08/23 05:37:21;;;;;;;1.00;0.93;;;23.20;95.20;;;;;;5123606;28;20545;-70
2022/08/23 05:39:52;;;;;;;3.80;1.27;;;23.10;95.50;;;;;;5124683;28;20448;-69
2022/08/23 05:42:24;;;;;;;1.10;1.03;;;23.00;95.90;;;;;;5116462;28;20510;-67
2022/08/23 05:44:56;;;;;;;1.50;1.40;;;23.00;95.90;;;;;;5097996;28;20461;-67
2022/08/23 05:47:28;;;;;;;1.20;1.00;;;23.00;96.10;;;;;;5103262;28;20556;-67
2022/08/23 05:50:02;;;;;;;1.60;1.30;;;22.90;96.30;;;;;;5111801;28;20473;-67
2022/08/23 05:52:33;;;;;;;1.43;1.33;;;22.90;96.70;;;;;;5110908;28;20579;-69
2022/08/23 05:55:04;;;;;;;0.80;0.80;;;22.80;96.90;;;;;;5110619;28;20818;-68
2022/08/23 05:57:36;;;;;;;1.33;1.23;;;22.80;97.30;;;;;;5106339;28;20483;-67
2022/08/23 06:00:12;;;;;;;1.63;1.20;;;22.80;96.90;;;;;;5104770;28;20451;-68
2022/08/23 06:02:43;;;;;;;0.97;0.90;;;22.70;97.20;;;;;;5119570;28;20443;-69
2022/08/23 06:05:14;;;;;;;0.90;0.90;;;22.60;97.40;;;;;;5109463;28;20930;-69
2022/08/23 06:07:45;;;;;;;0.90;0.90;;;22.50;97.70;;;;;;5108602;28;20550;-69
2022/08/23 06:10:19;;;;;;;0.90;0.90;;;22.40;97.60;;;;;;5116874;28;20467;-69
2022/08/23 06:12:50;;;;;;;1.97;1.27;;;22.40;97.50;;;;;;5112048;28;20450;-69
2022/08/23 06:15:22;;;;;;;1.07;0.97;;;22.40;97.90;;;;;;5107132;28;20465;-69
2022/08/23 06:17:53;;;;;;;0.90;0.90;;;22.30;98.10;;;;;;5092977;28;20469;-68
2022/08/23 06:20:24;;;;;;;1.13;1.00;;;22.20;98.20;;;;;;5105741;28;20515;-68
2022/08/23 06:22:54;;;;;;;1.17;1.07;;;22.20;98.70;;;;;;5108325;28;20780;-68
2022/08/23 06:25:25;;;;;;;1.37;1.27;;;22.10;98.90;;;;;;5107362;28;20462;-68
2022/08/23 06:27:56;;;;;;;1.33;1.07;;;22.00;99.10;;;;;;5119842;28;20462;-68
2022/08/23 06:30:30;;;;;;;1.47;1.20;;;22.10;99.10;;;;;;5109542;28;20517;-68
2022/08/23 06:33:00;;;;;;;1.30;1.03;;;22.00;99.50;;;;;;5100611;28;20542;-67
2022/08/23 06:35:31;;;;;;;1.30;1.20;;;22.00;99.60;;;;;;5117737;28;20458;-68
2022/08/23 06:38:08;;;;;;;0.87;0.87;;;21.90;99.70;;;;;;5103405;28;20821;-67
2022/08/23 06:40:39;;;;;;;1.50;1.40;;;21.80;99.80;;;;;;5114065;28;20472;-68
2022/08/23 06:43:10;;;;;;;0.80;0.80;;;21.80;99.90;;;;;;5107993;28;20432;-68
2022/08/23 06:45:42;;;;;;;0.80;0.80;;;21.70;99.90;;;;;;5121348;28;20434;-68
2022/08/23 06:48:23;;;;;;;0.93;0.83;;;21.70;99.90;;;;;;5100360;28;20464;-67
2022/08/23 06:50:54;;;;;;;2.30;1.17;;;21.60;99.90;;;;;;5102661;28;20465;-68
2022/08/23 06:53:25;;;;;;;1.13;1.03;;;21.60;99.90;;;;;;5101543;28;20501;-68
2022/08/23 06:55:58;;;;;;;2.10;0.90;;;21.50;99.90;;;;;;5106170;28;20462;-68
2022/08/23 06:58:28;;;;;;;0.77;0.77;;;21.40;99.90;;;;;;5112043;28;20471;-68
2022/08/23 07:01:11;;;;;;;1.20;1.00;;;21.40;99.90;;;;;;5098786;28;20474;-69
2022/08/23 07:04:03;;;;;;;1.50;1.00;;;21.30;99.90;;;;;;5103994;28;20522;-68
2022/08/23 07:06:34;;;;;;;1.37;1.10;;;21.30;99.90;;;;;;5114437;28;20469;-68
2022/08/23 07:09:05;;;;;;;1.30;1.20;;;21.30;99.90;;;;;;5094234;28;20495;-68
2022/08/23 07:11:38;;;;;;;1.07;0.97;;;21.30;99.90;;;;;;5107977;28;20945;-68
2022/08/23 07:14:11;;;;;;;1.07;0.97;;;21.20;99.90;;;;;;5107728;28;20457;-68
2022/08/23 07:16:46;;;;;;;1.13;0.70;;;21.10;99.90;;;;;;5117989;28;20466;-68
2022/08/23 07:19:18;;;;;;;0.63;0.63;;;21.10;99.90;;;;;;5099790;28;20546;-68
2022/08/23 07:21:50;;;;;;;0.77;0.77;;;21.10;99.90;;;;;;5116087;28;20454;-68
2022/08/23 07:24:21;;;;;;;1.03;0.90;;;21.00;99.90;;;;;;5099184;28;20484;-68
2022/08/23 07:26:52;;;;;;;1.03;0.97;;;20.90;99.90;;;;;;5111618;28;20807;-68
2022/08/23 07:29:24;;;;;;;1.03;0.90;;;20.90;99.90;;;;;;5114322;28;21003;-68
2022/08/23 07:31:57;;;;;;;1.10;1.10;;;20.80;99.90;;;;;;5093491;28;20575;-68
2022/08/23 07:34:29;;;;;;;0.90;0.73;;;20.70;99.90;;;;;;5092854;28;20449;-69
2022/08/23 07:37:00;;;;;;;1.30;1.13;;;20.70;99.90;;;;;;5111276;28;20521;-68
2022/08/23 07:39:31;;;;;;;0.87;0.87;;;20.60;99.90;;;;;;5108654;28;20542;-68
2022/08/23 07:42:03;;;;;;;1.17;1.00;;;20.50;99.90;;;;;;5106990;28;20487;-68
2022/08/23 07:44:53;;;;;;;0.80;0.80;;;20.60;99.90;;;;;;5108852;28;20590;-68
2022/08/23 07:47:29;;;;;;;0.93;0.93;;;20.50;99.90;;;;;;5103877;28;20493;-68
2022/08/23 07:50:00;;;;;;;0.93;0.93;;;20.40;99.90;;;;;;5111610;28;20471;-68
2022/08/23 07:52:30;;;;;;;0.93;0.70;;;20.30;99.90;;;;;;5084451;28;20457;-68
2022/08/23 07:55:01;;;;;;;0.90;0.90;;;20.40;99.90;;;;;;5102837;28;20428;-68
2022/08/23 07:57:32;;;;;;;1.00;0.90;;;20.40;99.90;;;;;;5111311;28;20450;-68
2022/08/23 08:00:03;;;;;;;1.37;1.27;;;20.40;99.90;;;;;;5110292;28;20474;-68
2022/08/23 08:02:35;;;;;;;0.70;0.60;;;20.40;99.90;;;;;;5109198;28;20457;-68
2022/08/23 08:05:06;;;;;;;1.23;0.90;;;20.30;99.90;;;;;;5098076;28;20457;-68
2022/08/23 08:07:37;;;;;;;0.77;0.77;;;20.20;99.90;;;;;;5099167;28;20918;-68
2022/08/23 08:10:09;;;;;;;1.00;0.90;;;20.20;99.90;;;;;;5110235;28;20939;-68
2022/08/23 08:12:40;;;;;;;0.80;0.80;;;20.20;99.90;;;;;;5122092;28;20438;-68
2022/08/23 08:15:11;;;;;;;1.20;1.10;;;20.20;99.90;;;;;;5104766;28;20463;-68
2022/08/23 08:17:47;;;;;;;0.70;0.70;;;20.10;99.90;;;;;;5121654;28;20462;-68
2022/08/23 08:20:18;;;;;;;0.80;0.80;;;20.20;99.90;;;;;;5105513;28;20468;-68
2022/08/23 08:22:49;;;;;;;1.03;0.80;;;20.00;99.90;;;;;;5104228;28;20465;-68
2022/08/23 08:25:31;;;;;;;1.00;0.90;;;20.00;99.90;;;;;;5117871;28;20534;-68
2022/08/23 08:28:02;;;;;;;1.23;0.90;;;19.90;99.90;;;;;;5111755;28;20455;-68
2022/08/23 08:30:33;;;;;;;0.87;0.87;;;19.90;99.90;;;;;;5119266;28;20489;-68
2022/08/23 08:33:06;;;;;;;1.30;1.17;;;19.90;99.90;;;;;;5106465;27;20444;-68
2022/08/23 08:35:37;;;;;;;1.10;0.90;;;19.90;99.90;;;;;;5106281;28;20465;-68
2022/08/23 08:38:08;;;;;;;1.27;1.17;;;19.80;99.90;;;;;;5109310;28;20457;-68
2022/08/23 08:40:40;;;;;;;0.73;0.73;;;19.80;99.90;;;;;;5112056;28;20454;-68
2022/08/23 08:43:31;;;;;;;1.27;1.07;;;19.80;99.90;;;;;;5114072;28;20454;-68
2022/08/23 08:46:06;;;;;;;0.87;0.87;;;19.70;99.90;;;;;;5089963;28;20487;-68
2022/08/23 08:48:43;;;;;;;1.10;1.00;;;19.70;99.90;;;;;;5121318;28;20433;-68
2022/08/23 08:51:33;;;;;;;0.83;0.83;;;19.60;99.90;;;;;;5105169;28;20511;-67
2022/08/23 08:54:08;;;;;;;1.63;1.10;;;19.60;99.90;;;;;;5116686;28;20437;-68
2022/08/23 08:56:40;;;;;;;1.30;1.20;;;19.60;99.90;;;;;;5119177;28;20439;-68
2022/08/23 08:59:15;;;;;;;0.90;0.80;;;19.60;99.90;;;;;;5119649;28;20491;-68
2022/08/23 09:01:46;;;;;;;0.90;0.80;;;19.50;99.90;;;;;;5096875;28;20541;-68
2022/08/23 09:04:21;;;;;;;0.73;0.70;;;19.50;99.90;;;;;;5103698;28;20469;-68
2022/08/23 09:07:02;;;;;;;1.40;1.30;;;19.50;99.90;;;;;;5116324;28;20472;-68
2022/08/23 09:09:52;;;;;;;0.87;0.87;;;19.50;99.90;;;;;;5112785;28;20474;-68
2022/08/23 09:12:33;;;;;;;1.07;0.90;;;19.50;99.90;;;;;;5091814;28;20457;-68
2022/08/23 09:15:18;;;;;;;1.07;0.87;;;19.40;99.90;;;;;;5098026;28;20434;-68
2022/08/23 09:17:54;;;;;;;1.60;1.20;;;19.30;99.90;;;;;;5103134;28;20629;-68
2022/08/23 09:20:29;;;;;;;1.10;1.00;;;19.40;99.90;;;;;;5116714;28;20501;-68
2022/08/23 09:23:09;;;;;;;0.87;0.87;;;19.30;99.90;;;;;;5107403;28;20486;-68
2022/08/23 09:25:40;;;;;;;1.47;1.10;;;19.20;99.90;;;;;;5119053;28;20858;-68
2022/08/23 09:28:11;;;;;;;0.97;0.80;;;19.20;99.90;;;;;;5108530;28;20444;-67
2022/08/23 09:30:51;;;;;;;0.90;0.77;;;19.20;99.90;;;;;;5091289;28;20480;-68
2022/08/23 09:33:23;;;;;;;1.20;1.10;;;19.10;99.90;;;;;;5087746;28;20888;-68
2022/08/23 09:36:23;;;;;;;1.30;1.20;;;19.00;99.90;;;;;;5112637;28;20429;-68
2022/08/23 09:38:57;;;;;;;1.50;1.40;;;19.00;99.90;;;;;;5092220;28;20441;-67
2022/08/23 09:41:32;;;;;;;1.13;1.03;;;19.00;99.90;;;;;;5105848;28;20474;-68
2022/08/23 09:44:03;;;;;;;1.10;1.00;;;18.90;99.90;;;;;;5111796;28;20452;-67
2022/08/23 09:46:37;;;;;;;1.40;1.10;;;18.90;99.90;;;;;;5086480;28;20432;-67
2022/08/23 09:49:25;;;;;;;1.03;0.97;;;18.90;99.90;;;;;;5092527;28;20494;-68
2022/08/23 09:52:02;;;;;;;1.00;0.90;;;18.80;99.90;;;;;;5099960;28;20464;-68
2022/08/23 09:54:35;;;;;;;1.47;1.37;;;18.80;99.90;;;;;;5106552;28;21035;-68
2022/08/23 09:57:12;;;;;;;1.07;1.07;;;18.80;99.90;;;;;;5115451;28;20440;-67
2022/08/23 09:59:45;;;;;;;1.23;1.07;;;18.80;99.90;;;;;;5112961;28;20476;-67
2022/08/23 10:02:25;;;;;;;1.20;1.10;;;18.80;99.90;;;;;;5112930;28;20532;-68
2022/08/23 10:05:01;;;;;;;1.40;1.30;;;18.70;99.90;;;;;;5097508;28;20448;-68
2022/08/23 10:07:40;;;;;;;8.37;1.60;;;18.80;99.90;;;;;;5098984;28;20544;-67
2022/08/23 10:10:18;;;;;;;1.40;1.30;;;18.80;99.90;;;;;;5107659;28;20538;-68
2022/08/23 10:12:49;;;;;;;1.10;1.00;;;18.70;99.90;;;;;;5114984;28;20425;-68
2022/08/23 10:15:22;;;;;;;1.37;1.10;;;18.70;99.90;;;;;;5109943;28;20429;-67
2022/08/23 10:18:01;;;;;;;1.57;1.40;;;18.70;99.90;;;;;;5105904;28;20496;-67
2022/08/23 10:20:42;;;;;;;1.63;1.43;;;18.70;99.90;;;;;;5121312;28;20462;-67
2022/08/23 10:23:28;;;;;;;1.47;1.37;;;18.70;99.90;;;;;;5104580;28;20966;-67
2022/08/23 10:26:01;;;;;;;1.83;1.73;;;18.60;99.90;;;;;;5107741;28;20450;-68
2022/08/23 10:31:37;;;;;;;1.40;1.30;;;18.50;99.90;;;;;;5108850;28;20473;-68
2022/08/23 10:34:33;;;;;;;1.20;1.10;;;18.50;99.90;;;;;;5092676;28;20441;-68
2022/08/23 10:37:27;;;;;;;1.50;1.40;;;18.40;99.90;;;;;;5107786;28;20468;-67
2022/08/23 10:40:03;;;;;;;1.60;1.50;;;18.30;99.90;;;;;;5102042;28;20462;-68
2022/08/23 10:42:41;;;;;;;1.40;1.30;;;18.30;99.90;;;;;;5105750;28;20464;-67
2022/08/23 10:45:25;;;;;;;1.33;1.10;;;18.20;99.90;;;;;;5097360;28;20484;-68
2022/08/23 10:48:06;;;;;;;2.23;1.40;;;18.20;99.90;;;;;;5086987;28;20478;-68
2022/08/23 10:50:45;;;;;;;1.53;1.43;;;18.10;99.90;;;;;;5120311;28;20489;-68
2022/08/23 10:53:31;;;;;;;2.60;1.77;;;18.10;99.90;;;;;;5093052;28;20456;-68
2022/08/23 10:56:05;;;;;;;1.33;1.23;;;18.00;99.90;;;;;;5110559;28;21117;-68
2022/08/23 10:58:43;;;;;;;1.50;1.23;;;18.00;99.90;;;;;;5104410;28;20461;-68
2022/08/23 11:01:19;;;;;;;1.50;1.40;;;18.00;99.90;;;;;;5105002;28;20473;-68
2022/08/23 11:04:02;;;;;;;1.40;1.30;;;18.00;99.90;;;;;;5088689;28;20430;-68
2022/08/23 11:06:51;;;;;;;1.20;1.10;;;18.00;99.90;;;;;;5116701;28;20764;-68
2022/08/23 11:09:52;;;;;;;1.50;1.40;;;18.00;99.90;;;;;;5099971;28;20957;-68
2022/08/23 11:12:34;;;;;;;1.50;1.40;;;17.90;99.90;;;;;;5108744;28;20472;-68
2022/08/23 11:15:20;;;;;;;2.33;1.40;;;17.80;99.90;;;;;;5105116;28;20440;-68
2022/08/23 11:18:01;;;;;;;2.80;1.80;;;17.80;99.90;;;;;;5120913;28;20932;-67
2022/08/23 11:21:01;;;;;;;2.13;1.93;;;17.70;99.90;;;;;;5101380;28;20495;-67
2022/08/23 11:23:54;;;;;;;1.97;1.40;;;17.70;99.90;;;;;;5035036;28;20484;-67
2022/08/23 11:27:06;;;;;;;1.60;1.50;;;17.60;99.90;;;;;;5005829;28;20449;-67
2022/08/23 11:29:45;;;;;;;1.23;1.00;;;17.60;99.90;;;;;;5018908;28;20542;-68
2022/08/23 11:32:36;;;;;;;1.60;1.50;;;17.50;99.90;;;;;;5007464;28;20525;-67
2022/08/23 11:35:28;;;;;;;1.87;1.70;;;17.40;99.90;;;;;;5011970;28;20469;-68
2022/08/23 11:38:02;;;;;;;1.70;1.60;;;17.40;99.90;;;;;;5031354;28;20457;-68
2022/08/23 11:40:57;;;;;;;1.93;1.50;;;17.40;99.90;;;;;;5035552;28;20448;-68
2022/08/23 11:43:34;;;;;;;1.97;1.20;;;17.30;99.90;;;;;;5033196;28;20432;-68
2022/08/23 11:46:30;;;;;;;1.50;1.40;;;17.30;99.90;;;;;;5017290;28;20461;-68
2022/08/23 11:49:24;;;;;;;1.50;1.40;;;17.30;99.90;;;;;;5024123;28;20520;-67
2022/08/23 11:52:04;;;;;;;1.60;1.50;;;17.30;99.90;;;;;;5018362;28;20482;-67
2022/08/23 11:55:03;;;;;;;1.60;1.13;;;17.20;99.90;;;;;;5010636;28;20471;-67
2022/08/23 11:57:55;;;;;;;1.50;1.40;;;17.20;99.90;;;;;;5035972;28;20592;-67
2022/08/23 12:00:32;;;;;;;2.30;1.63;;;17.20;99.90;;;;;;5113583;28;20525;-68
2022/08/23 12:03:07;;;;;;;1.40;1.30;;;17.20;99.90;;;;;;5113477;28;20917;-67
2022/08/23 12:05:57;;;;;;;1.60;1.50;;;17.20;99.90;;;;;;5091151;28;20509;-67
2022/08/23 12:08:49;;;;;;;1.90;1.80;;;17.20;99.90;;;;;;5100120;28;20469;-67
2022/08/23 12:11:21;;;;;;;1.40;1.30;;;17.20;99.90;;;;;;5105813;28;20477;-67
2022/08/23 12:13:56;;;;;;;1.40;1.30;;;17.10;99.90;;;;;;5108295;28;20485;-67
2022/08/23 12:16:40;;;;;;;1.20;1.10;;;17.10;99.90;;;;;;5112304;28;20835;-67
2022/08/23 12:19:32;;;;;;;1.53;1.40;;;17.00;99.90;;;;;;5099228;28;20467;-67
2022/08/23 12:22:13;;;;;;;1.47;1.37;;;17.10;99.90;;;;;;5116347;28;20466;-67
2022/08/23 12:24:47;;;;;;;1.60;1.30;;;17.00;99.90;;;;;;5102984;28;20471;-67
2022/08/23 12:27:30;;;;;;;1.67;1.57;;;17.00;99.90;;;;;;5110073;28;20942;-67
2022/08/23 12:30:06;;;;;;;1.83;1.53;;;16.90;99.90;;;;;;5102574;28;20453;-67
2022/08/23 12:32:43;;;;;;;1.73;1.63;;;16.90;99.90;;;;;;5117597;28;20483;-67
2022/08/23 12:35:35;;;;;;;2.30;2.10;;;16.70;99.90;;;;;;5116646;28;20457;-67
2022/08/23 12:38:11;;;;;;;1.90;1.70;;;16.80;99.90;;;;;;5109236;28;20461;-67
2022/08/23 12:40:44;;;;;;;2.20;1.60;;;16.80;99.90;;;;;;5112666;28;20449;-67
2022/08/23 12:43:21;;;;;;;1.90;1.70;;;16.70;99.90;;;;;;5088556;28;20463;-67
2022/08/23 12:45:54;;;;;;;2.60;2.00;;;16.70;99.90;;;;;;5107747;28;20461;-67
2022/08/23 12:48:28;;;;;;;2.20;1.70;;;16.70;99.90;;;;;;5105439;28;20443;-67
2022/08/23 12:51:03;;;;;;;1.30;1.20;;;16.70;99.90;;;;;;5099770;28;20911;-68
2022/08/23 12:53:36;;;;;;;2.03;1.40;;;16.70;99.90;;;;;;5090290;28;20433;-67
2022/08/23 12:56:24;;;;;;;2.50;1.80;;;16.60;99.90;;;;;;5105634;28;20440;-67
2022/08/23 12:59:04;;;;;;;2.27;2.00;;;16.60;99.90;;;;;;5099832;28;20461;-67
2022/08/23 13:01:37;;;;;;;2.20;2.00;;;16.60;99.90;;;;;;5116513;28;20466;-68
2022/08/23 13:04:12;;;;;;;2.40;1.73;;;16.60;99.90;;;;;;5112768;28;20486;-68
2022/08/23 13:06:48;;;;;;;2.30;1.83;;;16.60;99.90;;;;;;5101765;28;20543;-68
2022/08/23 13:09:23;;;;;;;1.63;1.37;;;16.60;99.90;;;;;;5089159;28;20481;-68
2022/08/23 13:11:55;;;;;;;2.03;1.60;;;16.60;99.90;;;;;;5097713;28;20588;-68
2022/08/23 13:14:34;;;;;;;1.73;1.43;;;16.60;99.90;;;;;;5088248;28;20502;-68
2022/08/23 13:17:20;;;;;;;1.80;1.70;;;16.50;99.90;;;;;;5104386;28;20454;-68
2022/08/23 13:19:52;;;;;;;2.10;1.80;;;16.50;99.90;;;;;;5108858;28;20458;-68
2022/08/23 13:22:27;;;;;;;1.90;1.67;;;16.50;99.90;;;;;;5106282;28;20470;-68
2022/08/23 13:25:07;;;;;;;2.60;2.40;;;16.40;99.90;;;;;;5115793;28;20519;-67
2022/08/23 13:27:59;;;;;;;2.83;2.23;;;16.40;99.90;;;;;;5113947;28;20463;-67
2022/08/23 13:30:31;;;;;;;2.63;2.07;;;16.40;99.90;;;;;;5109949;28;20435;-66
2022/08/23 13:33:24;;;;;;;1.73;1.60;;;16.40;99.90;;;;;;5123756;28;20481;-66
2022/08/23 13:36:10;;;;;;;2.20;2.00;;;16.50;99.90;;;;;;5122137;28;20456;-67
2022/08/23 13:38:44;;;;;;;1.30;1.20;;;16.50;99.90;;;;;;5115600;28;20552;-66
2022/08/23 13:41:32;;;;;;;4.53;2.00;;;16.50;99.90;;;;;;5111009;28;20509;-66
2022/08/23 13:44:09;;;;;;;1.67;1.57;;;16.50;99.90;;;;;;5120474;28;20488;-66